Time;durP1;ratioP1;P1;durP2;ratioP2;P2;SDS_P1;SDS_P2;PMS_P1;PMS_P2;Temp;Humidity;BMP_temperature;BMP_pressure;BME280_temperature;BME280_humidity;BME280_pressure;Samples;Min_cycle;Max_cycle;Signal;HPM_P1;HPM_P2
2023/05/31 00:01:59;;;;;;;7.40;6.70;;;14.70;85.50;;;;;;5013499;28;20068;-66
2023/05/31 00:04:27;;;;;;;8.88;6.78;;;14.70;86.50;;;;;;5012959;28;20057;-66
2023/05/31 00:06:55;;;;;;;13.57;7.07;;;14.70;86.90;;;;;;5013013;28;20056;-65
2023/05/31 00:09:22;;;;;;;8.35;6.93;;;14.70;86.90;;;;;;5011420;28;20080;-66
2023/05/31 00:11:50;;;;;;;8.57;6.93;;;14.70;87.30;;;;;;4995241;28;20041;-66
2023/05/31 00:14:17;;;;;;;8.07;6.75;;;14.70;87.10;;;;;;4995247;28;20053;-66
2023/05/31 00:16:45;;;;;;;7.78;6.97;;;14.70;87.20;;;;;;4994206;28;20294;-66
2023/05/31 00:19:32;;;;;;;7.03;6.32;;;14.60;87.60;;;;;;5010555;28;20069;-66
2023/05/31 00:22:00;;;;;;;8.82;6.18;;;14.60;87.50;;;;;;4993579;28;20482;-66
2023/05/31 00:24:27;;;;;;;8.27;6.90;;;14.50;87.90;;;;;;5008812;28;20080;-66
2023/05/31 00:26:55;;;;;;;7.40;6.45;;;14.50;88.10;;;;;;5011156;28;20049;-67
2023/05/31 00:29:23;;;;;;;7.80;6.93;;;14.50;88.50;;;;;;5010890;28;20080;-65
2023/05/31 00:31:50;;;;;;;8.45;6.68;;;14.50;89.10;;;;;;5011131;28;20042;-66
2023/05/31 00:34:18;;;;;;;8.13;7.15;;;14.50;89.20;;;;;;4995318;28;20081;-67
2023/05/31 00:36:45;;;;;;;10.55;6.88;;;14.40;89.70;;;;;;4994912;28;20042;-65
2023/05/31 00:39:13;;;;;;;8.00;7.20;;;14.40;89.30;;;;;;4995436;28;20050;-67
2023/05/31 00:41:40;;;;;;;8.90;6.68;;;14.40;89.70;;;;;;4995361;28;20053;-65
2023/05/31 00:44:08;;;;;;;7.32;6.50;;;14.50;90.00;;;;;;4994707;28;20124;-66
2023/05/31 00:46:40;;;;;;;11.05;7.13;;;14.40;89.90;;;;;;4994842;28;20061;-65
2023/05/31 00:49:08;;;;;;;7.68;6.50;;;14.40;90.00;;;;;;5000487;28;20092;-67
2023/05/31 00:51:36;;;;;;;8.07;6.65;;;14.30;90.10;;;;;;5012160;28;20103;-65
2023/05/31 00:54:04;;;;;;;7.00;6.30;;;14.30;90.30;;;;;;4995032;28;20053;-66
2023/05/31 00:56:31;;;;;;;8.38;6.93;;;14.30;90.50;;;;;;4996220;28;20045;-66
2023/05/31 00:59:00;;;;;;;10.30;6.45;;;14.30;90.50;;;;;;5012328;28;20034;-66
2023/05/31 01:01:32;;;;;;;7.38;6.60;;;14.20;90.60;;;;;;5001602;28;20156;-66
2023/05/31 01:04:02;;;;;;;6.72;6.13;;;14.20;90.80;;;;;;5012071;28;20042;-66
2023/05/31 01:06:32;;;;;;;7.85;6.50;;;14.10;90.90;;;;;;5011561;28;20041;-65
2023/05/31 01:09:04;;;;;;;7.15;6.40;;;14.10;91.20;;;;;;4994740;28;20046;-66
2023/05/31 01:11:40;;;;;;;7.72;6.30;;;14.10;91.40;;;;;;4978203;28;20038;-66
2023/05/31 01:14:30;;;;;;;6.97;6.28;;;14.10;91.50;;;;;;5002983;28;20183;-66
2023/05/31 01:17:13;;;;;;;8.15;6.65;;;14.10;91.50;;;;;;5009943;28;20053;-66
2023/05/31 01:19:51;;;;;;;8.45;6.80;;;14.00;91.60;;;;;;5013660;28;20137;-66
2023/05/31 01:22:54;;;;;;;9.55;7.05;;;14.00;91.60;;;;;;4985983;28;20147;-66
2023/05/31 01:25:55;;;;;;;7.72;6.93;;;13.90;91.80;;;;;;5010324;28;20042;-66
2023/05/31 01:28:25;;;;;;;9.25;6.85;;;13.90;92.00;;;;;;5018034;28;20041;-66
2023/05/31 01:30:55;;;;;;;7.95;6.72;;;13.90;92.10;;;;;;5008455;28;20320;-66
2023/05/31 01:33:23;;;;;;;9.93;6.68;;;13.80;92.30;;;;;;5012148;28;20038;-66
2023/05/31 01:35:50;;;;;;;8.07;6.93;;;13.80;92.50;;;;;;5003294;28;20081;-66
2023/05/31 01:38:19;;;;;;;7.10;6.40;;;13.80;92.80;;;;;;5014355;28;20046;-66
2023/05/31 01:40:46;;;;;;;12.48;6.53;;;13.70;92.90;;;;;;5019924;28;20116;-66
2023/05/31 01:43:14;;;;;;;8.75;7.05;;;13.70;93.10;;;;;;5013717;28;20425;-66
2023/05/31 01:45:42;;;;;;;9.98;7.03;;;13.70;93.20;;;;;;4994122;28;20053;-66
2023/05/31 01:48:12;;;;;;;8.75;6.95;;;13.60;93.40;;;;;;4985321;28;20089;-66
2023/05/31 01:50:40;;;;;;;7.80;6.95;;;13.60;93.70;;;;;;5011565;28;20061;-65
2023/05/31 01:53:08;;;;;;;8.25;6.95;;;13.60;93.70;;;;;;4993155;28;20121;-66
2023/05/31 01:55:36;;;;;;;8.13;6.85;;;13.50;93.90;;;;;;4991616;28;20112;-66
2023/05/31 01:58:05;;;;;;;8.25;7.25;;;13.50;94.40;;;;;;4992574;28;20410;-67
2023/05/31 02:00:34;;;;;;;7.93;7.07;;;13.40;94.70;;;;;;4998745;28;20434;-67
2023/05/31 02:03:02;;;;;;;9.23;7.00;;;13.40;95.10;;;;;;4990420;28;20061;-66
2023/05/31 02:05:29;;;;;;;7.63;6.93;;;13.30;95.30;;;;;;4992877;28;20072;-66
2023/05/31 02:07:59;;;;;;;8.55;7.03;;;13.30;95.50;;;;;;4993083;28;20042;-66
2023/05/31 02:10:26;;;;;;;9.23;7.43;;;13.20;96.00;;;;;;4992674;28;20053;-67
2023/05/31 02:12:54;;;;;;;9.35;7.55;;;13.10;96.40;;;;;;4993997;28;20042;-67
2023/05/31 02:15:23;;;;;;;8.30;7.50;;;13.10;96.60;;;;;;4980978;28;20060;-67
2023/05/31 02:17:51;;;;;;;13.60;7.30;;;13.10;97.00;;;;;;5008280;28;20080;-66
2023/05/31 02:20:19;;;;;;;10.35;7.20;;;13.10;97.30;;;;;;5008810;28;20053;-67
2023/05/31 02:22:47;;;;;;;9.02;7.10;;;13.10;97.60;;;;;;4983319;28;20061;-66
2023/05/31 02:25:15;;;;;;;7.32;6.60;;;13.00;97.80;;;;;;5015634;28;20375;-66
2023/05/31 02:27:43;;;;;;;8.15;6.80;;;13.00;98.20;;;;;;4995216;28;20112;-66
2023/05/31 02:30:10;;;;;;;7.45;6.68;;;12.90;98.50;;;;;;5010967;28;20045;-66
2023/05/31 02:32:38;;;;;;;7.10;6.40;;;12.90;98.80;;;;;;5019318;28;20525;-66
2023/05/31 02:35:08;;;;;;;7.47;6.68;;;12.90;99.00;;;;;;4995926;28;20052;-67
2023/05/31 02:37:37;;;;;;;9.88;7.03;;;12.90;99.20;;;;;;4984500;28;20573;-67
2023/05/31 02:40:08;;;;;;;9.63;7.40;;;12.80;99.60;;;;;;5000831;28;20136;-67
2023/05/31 02:42:38;;;;;;;7.63;6.82;;;12.80;99.80;;;;;;5001883;28;20421;-67
2023/05/31 02:45:09;;;;;;;7.97;7.22;;;12.70;99.90;;;;;;5010470;28;20656;-66
2023/05/31 02:47:38;;;;;;;7.95;7.10;;;12.70;99.90;;;;;;4983801;28;20536;-67
2023/05/31 02:50:11;;;;;;;8.73;7.88;;;12.70;99.90;;;;;;5000514;28;20041;-66
2023/05/31 02:52:53;;;;;;;8.25;6.93;;;12.70;99.90;;;;;;4997159;28;20041;-67
2023/05/31 02:55:37;;;;;;;11.13;7.70;;;12.60;99.90;;;;;;4991734;28;20050;-66
2023/05/31 02:58:19;;;;;;;10.15;7.35;;;12.60;99.90;;;;;;5008234;28;20041;-66
2023/05/31 03:01:13;;;;;;;8.55;7.55;;;12.60;99.90;;;;;;4992997;28;20069;-67
2023/05/31 03:04:03;;;;;;;8.15;7.38;;;12.50;99.90;;;;;;4975224;28;20050;-66
2023/05/31 03:06:34;;;;;;;8.87;7.17;;;12.50;99.90;;;;;;4990772;28;20541;-68
2023/05/31 03:09:03;;;;;;;7.95;7.10;;;12.50;99.90;;;;;;4980322;28;20289;-65
2023/05/31 03:11:33;;;;;;;8.70;7.70;;;12.50;99.90;;;;;;5011938;28;20037;-65
2023/05/31 03:14:00;;;;;;;8.45;7.25;;;12.40;99.90;;;;;;4988589;28;20074;-66
2023/05/31 03:16:44;;;;;;;9.07;7.10;;;12.40;99.90;;;;;;5001521;28;20543;-67
2023/05/31 03:19:13;;;;;;;7.93;7.13;;;12.50;99.90;;;;;;5016523;28;20079;-65
2023/05/31 03:21:43;;;;;;;10.13;7.07;;;12.40;99.90;;;;;;5003925;28;20084;-65
2023/05/31 03:24:10;;;;;;;9.23;7.47;;;12.40;99.90;;;;;;5022833;28;20041;-65
2023/05/31 03:26:38;;;;;;;7.80;6.97;;;12.40;99.90;;;;;;5003899;28;20497;-65
2023/05/31 03:29:06;;;;;;;9.68;6.90;;;12.50;99.90;;;;;;4988916;28;20065;-65
2023/05/31 03:31:34;;;;;;;12.93;7.03;;;12.50;99.90;;;;;;5004711;28;20107;-65
2023/05/31 03:34:02;;;;;;;9.00;7.30;;;12.50;99.90;;;;;;4986611;28;20053;-65
2023/05/31 03:36:31;;;;;;;7.97;6.60;;;12.50;99.90;;;;;;5006799;28;20038;-66
2023/05/31 03:39:03;;;;;;;9.40;7.00;;;12.50;99.90;;;;;;5000813;28;20055;-65
2023/05/31 03:41:31;;;;;;;9.70;7.10;;;12.50;99.90;;;;;;5002109;28;20049;-65
2023/05/31 03:43:58;;;;;;;9.45;6.70;;;12.50;99.90;;;;;;4990369;28;20085;-65
2023/05/31 03:46:26;;;;;;;7.50;6.70;;;12.50;99.90;;;;;;4979173;28;20052;-65
2023/05/31 03:48:54;;;;;;;9.23;6.93;;;12.50;99.90;;;;;;5000081;28;20394;-65
2023/05/31 03:51:24;;;;;;;8.98;8.00;;;12.50;99.90;;;;;;4978677;28;20457;-66
2023/05/31 03:53:52;;;;;;;8.23;7.35;;;12.50;99.90;;;;;;5010646;28;20060;-65
2023/05/31 03:56:20;;;;;;;8.23;7.20;;;12.50;99.90;;;;;;5004011;28;20049;-66
2023/05/31 03:58:48;;;;;;;8.02;7.03;;;12.50;99.90;;;;;;5004085;28;20327;-66
2023/05/31 04:01:17;;;;;;;9.35;7.05;;;12.50;99.90;;;;;;4995195;28;20110;-66
2023/05/31 04:03:46;;;;;;;9.00;7.30;;;12.50;99.90;;;;;;4995495;28;20034;-66
2023/05/31 04:06:14;;;;;;;8.50;7.30;;;12.60;99.90;;;;;;5000979;28;20052;-66
2023/05/31 04:08:41;;;;;;;7.82;7.03;;;12.70;99.90;;;;;;5002543;28;20037;-66
2023/05/31 04:11:10;;;;;;;9.02;7.05;;;12.70;99.90;;;;;;5012429;28;20038;-66
2023/05/31 04:13:38;;;;;;;7.68;6.78;;;12.80;99.90;;;;;;5008258;28;20324;-66
2023/05/31 04:16:06;;;;;;;9.38;7.55;;;12.80;99.90;;;;;;4991996;28;20137;-66
2023/05/31 04:18:33;;;;;;;9.95;7.22;;;12.90;99.90;;;;;;5001785;28;20041;-66
2023/05/31 04:21:02;;;;;;;10.80;7.72;;;13.00;99.90;;;;;;5007141;28;20041;-65
2023/05/31 04:23:30;;;;;;;10.07;7.70;;;13.00;99.90;;;;;;5019286;28;20050;-65
2023/05/31 04:26:00;;;;;;;11.30;7.50;;;13.00;99.90;;;;;;4986410;28;20089;-66
2023/05/31 04:28:29;;;;;;;9.80;8.10;;;13.10;99.90;;;;;;4994315;28;20069;-66
2023/05/31 04:30:58;;;;;;;8.40;7.38;;;13.10;99.90;;;;;;4980118;28;20052;-66
2023/05/31 04:33:29;;;;;;;9.73;6.93;;;13.20;99.90;;;;;;4997576;28;20038;-66
2023/05/31 04:35:57;;;;;;;8.00;6.70;;;13.40;99.90;;;;;;4999561;28;20507;-66
2023/05/31 04:38:27;;;;;;;9.85;6.80;;;13.40;99.90;;;;;;5002731;28;20504;-65
2023/05/31 04:40:57;;;;;;;7.87;6.90;;;13.50;99.90;;;;;;4997245;28;20107;-66
2023/05/31 04:43:26;;;;;;;9.38;6.70;;;13.50;99.90;;;;;;4977804;28;20056;-66
2023/05/31 04:45:55;;;;;;;8.25;7.10;;;13.60;99.90;;;;;;4993502;28;20459;-66
2023/05/31 04:48:26;;;;;;;12.32;8.18;;;13.70;99.90;;;;;;4993139;28;20160;-65
2023/05/31 04:50:55;;;;;;;;;;;13.80;99.90;;;;;;5001036;28;20034;-65
2023/05/31 04:53:23;;;;;;;7.45;6.70;;;13.80;99.90;;;;;;4992772;28;20373;-65
2023/05/31 04:55:51;;;;;;;11.63;7.72;;;13.90;99.90;;;;;;4993093;28;20038;-66
2023/05/31 04:58:19;;;;;;;11.45;7.60;;;14.00;99.90;;;;;;4976554;28;20539;-66
2023/05/31 05:00:48;;;;;;;12.10;8.00;;;14.10;99.90;;;;;;4994142;28;20117;-66
2023/05/31 05:03:23;;;;;;;14.27;8.07;;;14.20;99.90;;;;;;4994236;28;20042;-66
2023/05/31 05:05:52;;;;;;;10.07;8.45;;;14.30;99.90;;;;;;4994059;28;20041;-66
2023/05/31 05:08:20;;;;;;;11.00;8.68;;;14.30;99.90;;;;;;4993807;28;20049;-66
2023/05/31 05:10:49;;;;;;;9.63;7.72;;;14.40;99.90;;;;;;5011168;28;20041;-66
2023/05/31 05:13:17;;;;;;;10.45;7.85;;;14.50;99.90;;;;;;4978433;28;20046;-66
2023/05/31 05:15:46;;;;;;;8.32;7.60;;;14.60;99.90;;;;;;4993411;28;20116;-66
2023/05/31 05:18:15;;;;;;;10.07;8.60;;;14.70;99.90;;;;;;4993329;28;20568;-65
2023/05/31 05:20:43;;;;;;;9.18;8.23;;;14.80;99.90;;;;;;4993482;28;20038;-66
2023/05/31 05:23:11;;;;;;;12.95;7.80;;;14.80;99.90;;;;;;4993570;28;20038;-66
2023/05/31 05:25:38;;;;;;;10.02;8.10;;;14.90;99.90;;;;;;4994164;28;20441;-69
2023/05/31 05:28:06;;;;;;;9.45;8.00;;;15.00;99.90;;;;;;4994548;28;20030;-66
2023/05/31 05:30:33;;;;;;;8.20;7.40;;;15.10;99.90;;;;;;4977009;28;20066;-66
2023/05/31 05:33:02;;;;;;;9.38;7.90;;;15.20;99.90;;;;;;4994806;28;20038;-66
2023/05/31 05:35:30;;;;;;;11.85;8.20;;;15.30;99.90;;;;;;4977541;28;20074;-66
2023/05/31 05:37:59;;;;;;;9.07;7.95;;;15.40;99.90;;;;;;4976389;28;20042;-66
2023/05/31 05:40:27;;;;;;;9.93;8.27;;;15.40;99.90;;;;;;4990648;28;20042;-64
2023/05/31 05:42:54;;;;;;;9.27;8.15;;;15.50;99.90;;;;;;4972277;28;20400;-66
2023/05/31 05:45:23;;;;;;;10.05;7.38;;;15.60;99.90;;;;;;4996712;28;20116;-67
2023/05/31 05:47:55;;;;;;;14.65;8.68;;;15.70;99.90;;;;;;4992267;28;20053;-66
2023/05/31 05:50:23;;;;;;;10.32;7.82;;;15.80;99.90;;;;;;4989952;28;20046;-66
2023/05/31 05:52:52;;;;;;;13.05;7.85;;;15.80;99.90;;;;;;4988002;28;20045;-67
2023/05/31 05:55:20;;;;;;;9.18;7.80;;;15.80;99.90;;;;;;5011056;28;20042;-67
2023/05/31 05:57:48;;;;;;;11.38;7.60;;;16.00;99.90;;;;;;5010425;28;20132;-66
2023/05/31 06:00:40;;;;;;;11.07;8.00;;;16.10;99.90;;;;;;4969115;28;20109;-67
2023/05/31 06:03:08;;;;;;;10.75;7.63;;;16.10;99.90;;;;;;4963038;28;20054;-67
2023/05/31 06:05:36;;;;;;;11.23;7.22;;;16.20;99.90;;;;;;4949439;28;20130;-65
2023/05/31 06:08:05;;;;;;;9.00;7.63;;;16.40;99.90;;;;;;4966039;28;20054;-65
2023/05/31 06:10:33;;;;;;;8.75;7.55;;;16.60;99.90;;;;;;4955299;28;20493;-65
2023/05/31 06:13:00;;;;;;;8.82;7.90;;;16.70;99.90;;;;;;4941166;28;20055;-66
2023/05/31 06:15:28;;;;;;;8.32;7.47;;;16.90;99.80;;;;;;4953556;28;20532;-65
2023/05/31 06:17:55;;;;;;;18.38;8.35;;;16.90;99.90;;;;;;4969150;28;20050;-66
2023/05/31 06:20:23;;;;;;;9.65;7.40;;;17.00;99.60;;;;;;4936931;28;20665;-65
2023/05/31 06:22:51;;;;;;;10.18;7.22;;;17.20;99.30;;;;;;4952689;28;20071;-65
2023/05/31 06:25:20;;;;;;;8.93;8.02;;;17.30;99.00;;;;;;4957566;28;20059;-65
2023/05/31 06:27:48;;;;;;;10.90;9.82;;;17.30;98.60;;;;;;4935353;28;20296;-65
2023/05/31 06:30:16;;;;;;;9.52;7.70;;;17.30;98.30;;;;;;4952169;28;20046;-65
2023/05/31 06:32:45;;;;;;;9.73;7.07;;;17.30;98.10;;;;;;4969821;28;20142;-65
2023/05/31 06:35:19;;;;;;;10.93;6.95;;;17.30;98.20;;;;;;4968902;28;20074;-65
2023/05/31 06:37:47;;;;;;;9.68;7.20;;;17.30;98.40;;;;;;4984107;28;20405;-65
2023/05/31 06:40:15;;;;;;;7.63;6.82;;;17.30;98.20;;;;;;4993477;28;20049;-64
2023/05/31 06:42:42;;;;;;;10.98;7.65;;;17.40;97.90;;;;;;4983677;28;20093;-64
2023/05/31 06:45:31;;;;;;;12.82;8.10;;;17.50;97.90;;;;;;4980725;28;20114;-64
2023/05/31 06:48:04;;;;;;;9.07;6.95;;;17.50;97.70;;;;;;5010257;28;20666;-64
2023/05/31 06:51:10;;;;;;;7.70;6.53;;;17.60;97.60;;;;;;4944096;29;20040;-64
2023/05/31 06:54:00;;;;;;;12.00;7.38;;;17.70;97.40;;;;;;4943868;29;20055;-64
2023/05/31 06:56:29;;;;;;;15.73;8.13;;;17.70;97.40;;;;;;4949169;29;20055;-65
2023/05/31 06:58:56;;;;;;;10.18;7.05;;;17.80;97.30;;;;;;4939112;29;20055;-65
2023/05/31 07:01:25;;;;;;;11.43;7.60;;;17.90;96.80;;;;;;4940061;29;20582;-65
2023/05/31 07:03:52;;;;;;;13.55;7.90;;;17.90;96.60;;;;;;4932526;29;20126;-65
2023/05/31 07:06:20;;;;;;;9.02;7.13;;;18.00;96.40;;;;;;4945617;29;20050;-64
2023/05/31 07:08:49;;;;;;;10.13;6.78;;;18.00;96.00;;;;;;4930027;29;20079;-64
2023/05/31 07:11:23;;;;;;;10.50;6.78;;;18.10;95.90;;;;;;4946212;29;20130;-64
2023/05/31 07:13:50;;;;;;;10.60;7.22;;;18.20;96.20;;;;;;4933995;29;20040;-65
2023/05/31 07:16:18;;;;;;;8.35;7.05;;;18.30;95.70;;;;;;4947928;29;20043;-64
2023/05/31 07:18:46;;;;;;;12.68;7.68;;;18.40;95.30;;;;;;4928640;29;20099;-64
2023/05/31 07:21:15;;;;;;;10.82;7.32;;;18.50;94.90;;;;;;4957297;28;20096;-65
2023/05/31 07:23:42;;;;;;;12.85;7.13;;;18.50;94.70;;;;;;5010451;28;20510;-64
2023/05/31 07:26:10;;;;;;;9.75;7.50;;;18.60;94.30;;;;;;5017138;28;20128;-65
2023/05/31 07:28:37;;;;;;;9.50;7.85;;;18.60;93.70;;;;;;5012103;28;20493;-64
2023/05/31 07:31:04;;;;;;;96.90;15.55;;;18.60;93.70;;;;;;5005189;28;20564;-64
2023/05/31 07:33:32;;;;;;;23.70;8.98;;;18.70;93.80;;;;;;5010978;28;20041;-64
2023/05/31 07:36:00;;;;;;;9.07;7.03;;;18.90;93.90;;;;;;5013025;28;20065;-63
2023/05/31 07:38:28;;;;;;;13.60;7.22;;;18.90;93.50;;;;;;5021607;28;20128;-64
2023/05/31 07:40:56;;;;;;;13.02;7.50;;;19.00;92.80;;;;;;5009823;28;20046;-65
2023/05/31 07:43:24;;;;;;;10.32;7.05;;;19.10;92.70;;;;;;4993516;28;20071;-64
2023/05/31 07:45:54;;;;;;;9.45;7.93;;;19.20;91.80;;;;;;5011925;28;20135;-64
2023/05/31 07:48:22;;;;;;;9.07;6.85;;;19.20;91.60;;;;;;5009356;28;20054;-64
2023/05/31 07:50:50;;;;;;;14.15;7.15;;;19.20;91.40;;;;;;5009687;28;20073;-65
2023/05/31 07:53:17;;;;;;;13.23;7.35;;;19.30;91.20;;;;;;5008431;28;20138;-64
2023/05/31 07:55:45;;;;;;;10.73;7.25;;;19.40;91.00;;;;;;5001790;28;20132;-65
2023/05/31 07:58:13;;;;;;;27.75;8.55;;;19.40;90.70;;;;;;5012916;28;20042;-64
2023/05/31 08:00:40;;;;;;;22.45;7.88;;;19.50;90.50;;;;;;5011378;28;20285;-65
2023/05/31 08:03:07;;;;;;;18.65;7.75;;;19.60;90.10;;;;;;4995978;28;20556;-64
2023/05/31 08:05:35;;;;;;;12.27;6.60;;;19.70;90.10;;;;;;5012256;28;20041;-65
2023/05/31 08:08:02;;;;;;;12.27;7.05;;;19.70;89.40;;;;;;5013372;28;20129;-64
2023/05/31 08:10:30;;;;;;;10.07;6.82;;;19.80;88.90;;;;;;5016010;28;20050;-64
2023/05/31 08:12:57;;;;;;;8.43;6.70;;;19.80;88.90;;;;;;5015804;28;20038;-64
2023/05/31 08:15:25;;;;;;;10.27;7.22;;;19.90;88.80;;;;;;5011425;28;20038;-64
2023/05/31 08:17:52;;;;;;;11.13;7.13;;;19.90;87.50;;;;;;5010677;28;20464;-65
2023/05/31 08:20:20;;;;;;;10.52;7.75;;;20.10;87.90;;;;;;5018251;28;20049;-64
2023/05/31 08:22:48;;;;;;;10.00;7.20;;;20.20;86.70;;;;;;5010477;28;20052;-64
2023/05/31 08:25:16;;;;;;;10.13;7.03;;;20.20;86.10;;;;;;5003684;28;20604;-64
2023/05/31 08:27:44;;;;;;;9.02;6.47;;;20.30;86.00;;;;;;5006043;28;20088;-64
2023/05/31 08:30:12;;;;;;;10.23;7.00;;;20.30;86.10;;;;;;5028779;28;20069;-64
2023/05/31 08:32:42;;;;;;;10.02;6.75;;;20.40;84.40;;;;;;4999535;28;20099;-64
2023/05/31 08:35:10;;;;;;;15.23;7.10;;;20.40;84.50;;;;;;5006810;28;20509;-64
2023/05/31 08:37:38;;;;;;;10.02;7.78;;;20.50;85.50;;;;;;5004909;28;20042;-64
2023/05/31 08:40:06;;;;;;;8.60;7.03;;;20.60;83.80;;;;;;4998338;28;20060;-65
2023/05/31 08:42:49;;;;;;;11.93;6.55;;;20.70;84.30;;;;;;5007709;28;20076;-66
2023/05/31 08:45:17;;;;;;;;;;;20.80;83.10;;;;;;5021623;28;20116;-65
2023/05/31 08:48:17;;;;;;;8.52;6.82;;;20.90;82.70;;;;;;5012273;28;20021;-66
2023/05/31 08:50:46;;;;;;;11.55;6.70;;;21.00;81.40;;;;;;5004916;28;20042;-65
2023/05/31 08:53:16;;;;;;;9.68;6.45;;;21.00;81.40;;;;;;5010233;28;20038;-65
2023/05/31 08:55:46;;;;;;;11.38;7.38;;;21.10;80.60;;;;;;5018764;28;20371;-65
2023/05/31 08:58:14;;;;;;;10.52;7.38;;;21.10;79.90;;;;;;5012748;28;20053;-65
2023/05/31 09:00:43;;;;;;;8.60;7.60;;;21.20;79.90;;;;;;5010651;28;20789;-65
2023/05/31 09:03:11;;;;;;;12.73;7.20;;;21.30;77.70;;;;;;5010768;28;20081;-65
2023/05/31 09:05:39;;;;;;;8.70;6.90;;;21.30;78.00;;;;;;5002358;28;20153;-65
2023/05/31 09:08:06;;;;;;;10.35;7.00;;;21.40;77.10;;;;;;5018937;28;20097;-65
2023/05/31 09:10:34;;;;;;;12.77;6.78;;;21.40;75.50;;;;;;4994031;28;20076;-64
2023/05/31 09:13:03;;;;;;;9.50;7.07;;;21.40;75.00;;;;;;5012146;28;20224;-64
2023/05/31 09:15:31;;;;;;;9.98;6.80;;;21.50;75.00;;;;;;4995877;28;20076;-64
2023/05/31 09:18:19;;;;;;;9.18;7.18;;;21.50;74.30;;;;;;5010777;28;20052;-65
2023/05/31 09:20:48;;;;;;;10.98;7.15;;;21.70;75.00;;;;;;5003809;28;20047;-64
2023/05/31 09:23:18;;;;;;;7.30;6.70;;;21.80;74.80;;;;;;5011172;28;20156;-64
2023/05/31 09:25:48;;;;;;;9.95;6.90;;;21.80;74.10;;;;;;5018280;28;20081;-64
2023/05/31 09:28:17;;;;;;;9.25;6.57;;;21.90;75.30;;;;;;5010403;28;20062;-65
2023/05/31 09:30:45;;;;;;;14.10;10.73;;;22.00;75.70;;;;;;5010455;28;20069;-64
2023/05/31 09:33:13;;;;;;;11.38;8.80;;;22.10;74.80;;;;;;5010143;28;20056;-64
2023/05/31 09:35:57;;;;;;;10.85;7.68;;;22.30;74.00;;;;;;5022631;28;20046;-65
2023/05/31 09:38:34;;;;;;;10.88;8.70;;;22.40;73.50;;;;;;5020646;28;20042;-64
2023/05/31 09:41:21;;;;;;;8.07;6.70;;;22.50;73.10;;;;;;5014639;28;20069;-65
2023/05/31 09:43:49;;;;;;;9.73;7.47;;;22.70;73.10;;;;;;5009497;28;20107;-64
2023/05/31 09:46:18;;;;;;;8.00;7.05;;;22.80;73.90;;;;;;5012340;28;20041;-64
2023/05/31 09:48:57;;;;;;;9.85;7.22;;;22.90;73.30;;;;;;5001304;28;20046;-64
2023/05/31 09:51:26;;;;;;;8.93;8.00;;;23.00;72.40;;;;;;5010297;28;20042;-65
2023/05/31 09:53:55;;;;;;;14.05;7.43;;;23.00;72.10;;;;;;5010283;28;20041;-65
2023/05/31 09:56:27;;;;;;;8.82;6.80;;;23.20;71.20;;;;;;5001135;28;20132;-64
2023/05/31 09:59:00;;;;;;;10.02;6.68;;;23.30;70.20;;;;;;5009512;28;20540;-64
2023/05/31 10:01:28;;;;;;;9.98;7.80;;;23.40;70.60;;;;;;5008946;28;20536;-64
2023/05/31 10:03:59;;;;;;;9.98;7.07;;;23.50;69.80;;;;;;5009716;28;20045;-63
2023/05/31 10:06:26;;;;;;;7.63;6.72;;;23.60;68.90;;;;;;5009429;28;20081;-64
2023/05/31 10:08:53;;;;;;;8.90;7.22;;;23.70;68.50;;;;;;5014239;28;20129;-65
2023/05/31 10:11:32;;;;;;;13.38;7.43;;;23.90;68.10;;;;;;5017272;28;20037;-65
2023/05/31 10:14:02;;;;;;;13.63;6.88;;;24.00;68.40;;;;;;5013199;28;20044;-65
2023/05/31 10:16:38;;;;;;;9.85;6.88;;;24.00;67.80;;;;;;5008575;28;20050;-64
2023/05/31 10:19:10;;;;;;;7.57;6.68;;;24.00;67.80;;;;;;5010072;28;20141;-64
2023/05/31 10:21:42;;;;;;;10.45;6.65;;;24.10;68.00;;;;;;5003130;28;20044;-64
2023/05/31 10:24:40;;;;;;;;;;;24.20;67.20;;;;;;5011161;28;20531;-65
2023/05/31 10:27:22;;;;;;;10.77;6.72;;;24.30;66.30;;;;;;5000928;28;19928;-65
2023/05/31 10:29:53;;;;;;;12.32;8.63;;;24.40;66.30;;;;;;5014333;28;20070;-64
2023/05/31 10:32:26;;;;;;;9.57;7.05;;;24.60;65.90;;;;;;5009090;28;20053;-64
2023/05/31 10:34:54;;;;;;;10.57;6.10;;;24.90;65.80;;;;;;5007010;28;20034;-64
2023/05/31 10:37:23;;;;;;;10.90;6.30;;;25.00;65.10;;;;;;5015210;28;20049;-64
2023/05/31 10:40:18;;;;;;;12.15;6.97;;;25.20;64.40;;;;;;4998781;28;20050;-64
2023/05/31 10:42:56;;;;;;;7.68;6.60;;;25.40;64.10;;;;;;5002576;28;20096;-64
2023/05/31 10:45:35;;;;;;;8.13;6.95;;;25.50;62.80;;;;;;5014436;28;20048;-64
2023/05/31 10:48:27;;;;;;;10.55;7.15;;;25.70;62.60;;;;;;5010928;28;20050;-64
2023/05/31 10:50:57;;;;;;;11.00;7.15;;;25.60;61.80;;;;;;4997564;28;20520;-64
2023/05/31 10:53:30;;;;;;;10.23;6.72;;;25.70;61.90;;;;;;5019578;28;20045;-65
2023/05/31 10:56:11;;;;;;;11.95;6.78;;;25.90;61.40;;;;;;5018205;28;20073;-64
2023/05/31 10:58:42;;;;;;;9.30;6.93;;;25.90;60.80;;;;;;4992439;28;20164;-64
2023/05/31 11:01:14;;;;;;;10.82;6.63;;;26.10;60.50;;;;;;4994298;28;20088;-65
2023/05/31 11:03:49;;;;;;;8.63;6.45;;;26.20;60.60;;;;;;5007795;28;20069;-64
2023/05/31 11:06:26;;;;;;;9.75;6.55;;;26.30;60.80;;;;;;5010001;28;20041;-65
2023/05/31 11:09:15;;;;;;;9.73;6.60;;;26.50;60.90;;;;;;5018124;28;20136;-65
2023/05/31 11:11:46;;;;;;;10.10;6.30;;;26.80;60.20;;;;;;5009847;28;20140;-65
2023/05/31 11:14:29;;;;;;;6.65;6.07;;;26.90;58.30;;;;;;5017549;28;20049;-65
2023/05/31 11:17:02;;;;;;;8.13;6.72;;;27.10;57.80;;;;;;4997623;28;20584;-65
2023/05/31 11:19:31;;;;;;;11.90;7.18;;;27.40;56.90;;;;;;5008030;28;20144;-65
2023/05/31 11:22:15;;;;;;;12.68;7.03;;;27.50;55.90;;;;;;5015393;28;20041;-65
2023/05/31 11:24:54;;;;;;;8.10;6.72;;;27.70;55.60;;;;;;5001777;28;20548;-65
2023/05/31 11:27:48;;;;;;;8.00;6.40;;;28.20;55.00;;;;;;5008135;28;20060;-65
2023/05/31 11:30:16;;;;;;;9.73;6.68;;;28.50;54.50;;;;;;5012541;28;20037;-65
2023/05/31 11:32:43;;;;;;;10.82;6.93;;;28.40;53.10;;;;;;5012631;28;20042;-65
2023/05/31 11:35:15;;;;;;;7.32;6.25;;;28.50;52.70;;;;;;5012529;28;20416;-65
2023/05/31 11:37:43;;;;;;;7.10;5.93;;;28.60;53.40;;;;;;5009050;28;20464;-65
2023/05/31 11:40:12;;;;;;;8.48;6.75;;;28.90;53.40;;;;;;4999013;28;20092;-65
2023/05/31 11:42:42;;;;;;;9.18;6.75;;;29.10;51.90;;;;;;5005624;28;20150;-65
2023/05/31 11:45:12;;;;;;;9.65;6.60;;;29.30;51.60;;;;;;5021275;28;20055;-65
2023/05/31 11:47:49;;;;;;;12.88;7.00;;;29.10;52.30;;;;;;5013353;28;20041;-65
2023/05/31 11:50:17;;;;;;;8.07;6.47;;;29.30;52.00;;;;;;5023431;28;20458;-65
2023/05/31 11:52:45;;;;;;;8.40;7.20;;;29.40;51.30;;;;;;5011683;28;20037;-65
2023/05/31 11:55:17;;;;;;;8.27;7.20;;;29.90;51.50;;;;;;5011602;28;20051;-65
2023/05/31 11:57:53;;;;;;;7.70;6.60;;;30.00;50.80;;;;;;5011663;28;20133;-65
2023/05/31 12:00:21;;;;;;;8.73;6.60;;;30.50;51.10;;;;;;5012697;28;20390;-65
2023/05/31 12:02:56;;;;;;;10.85;6.68;;;30.50;51.50;;;;;;4998927;28;20053;-65
2023/05/31 12:05:24;;;;;;;7.88;6.80;;;30.70;51.20;;;;;;5013143;28;20461;-65
2023/05/31 12:07:56;;;;;;;8.60;6.28;;;31.00;50.50;;;;;;5011627;28;20072;-65
2023/05/31 12:10:31;;;;;;;8.43;6.18;;;30.80;50.60;;;;;;5019028;28;20045;-65
2023/05/31 12:12:59;;;;;;;11.88;6.90;;;31.20;50.60;;;;;;5018790;28;20060;-65
2023/05/31 12:15:31;;;;;;;7.90;6.47;;;31.30;51.20;;;;;;5013835;28;20083;-65
2023/05/31 12:18:01;;;;;;;11.07;6.82;;;31.80;50.00;;;;;;5010978;28;20046;-65
2023/05/31 12:20:34;;;;;;;6.65;6.05;;;32.30;49.20;;;;;;5012918;28;20433;-65
2023/05/31 12:23:11;;;;;;;7.80;5.78;;;32.30;48.90;;;;;;5015889;28;20053;-65
2023/05/31 12:25:46;;;;;;;10.13;6.05;;;32.20;48.90;;;;;;5004454;28;20045;-63
2023/05/31 12:28:18;;;;;;;10.60;6.25;;;32.70;48.50;;;;;;5011073;28;20516;-64
2023/05/31 12:30:47;;;;;;;8.27;6.78;;;33.20;48.70;;;;;;5002273;28;20046;-64
2023/05/31 12:33:15;;;;;;;10.23;6.47;;;33.70;47.80;;;;;;5010226;28;20050;-64
2023/05/31 12:35:45;;;;;;;8.73;6.68;;;33.90;47.40;;;;;;5003225;28;20059;-64
2023/05/31 12:38:14;;;;;;;13.25;6.70;;;33.70;47.20;;;;;;5012388;28;20042;-64
2023/05/31 12:40:43;;;;;;;8.90;6.30;;;33.50;47.30;;;;;;5015634;28;20124;-64
2023/05/31 12:43:14;;;;;;;10.25;6.70;;;34.10;45.10;;;;;;5013374;28;20050;-64
2023/05/31 12:45:42;;;;;;;7.22;6.25;;;34.10;45.00;;;;;;4993248;28;20075;-64
2023/05/31 12:48:11;;;;;;;11.88;6.43;;;34.10;44.90;;;;;;5012699;28;20050;-65
2023/05/31 12:50:46;;;;;;;7.32;6.35;;;34.10;44.00;;;;;;5011809;28;20120;-64
2023/05/31 12:53:14;;;;;;;8.13;6.25;;;34.00;43.30;;;;;;5008745;28;20046;-64
2023/05/31 12:55:42;;;;;;;6.82;6.13;;;34.60;42.80;;;;;;5019086;28;20104;-65
2023/05/31 12:58:10;;;;;;;6.75;6.15;;;34.50;41.90;;;;;;5019972;28;20101;-64
2023/05/31 13:00:37;;;;;;;10.20;6.80;;;34.60;42.20;;;;;;5018228;28;20041;-64
2023/05/31 13:03:12;;;;;;;9.23;6.38;;;34.60;41.60;;;;;;5011252;28;20203;-64